sensor_id;sensor_type;location;lat;lon;timestamp;P1;durP1;ratioP1;P2;durP2;ratioP2
42420;SDS011;28063;48.140;11.588;2023-09-07T00:01:20;2.40;;;2.20;;
42420;SDS011;28063;48.140;11.588;2023-09-07T00:03:46;2.05;;;1.95;;
42420;SDS011;28063;48.140;11.588;2023-09-07T00:06:12;3.00;;;2.70;;
42420;SDS011;28063;48.140;11.588;2023-09-07T00:08:38;2.53;;;2.33;;
42420;SDS011;28063;48.140;11.588;2023-09-07T00:11:05;2.50;;;2.30;;
42420;SDS011;28063;48.140;11.588;2023-09-07T00:13:32;2.20;;;2.00;;
42420;SDS011;28063;48.140;11.588;2023-09-07T00:16:01;2.00;;;1.90;;
42420;SDS011;28063;48.140;11.588;2023-09-07T00:18:28;1.65;;;1.55;;
42420;SDS011;28063;48.140;11.588;2023-09-07T00:20:54;2.33;;;2.13;;
42420;SDS011;28063;48.140;11.588;2023-09-07T00:23:20;1.77;;;1.67;;
42420;SDS011;28063;48.140;11.588;2023-09-07T00:25:46;1.52;;;1.45;;
42420;SDS011;28063;48.140;11.588;2023-09-07T00:28:13;1.75;;;1.65;;
42420;SDS011;28063;48.140;11.588;2023-09-07T00:30:39;1.83;;;1.73;;
42420;SDS011;28063;48.140;11.588;2023-09-07T00:33:05;1.77;;;1.67;;
42420;SDS011;28063;48.140;11.588;2023-09-07T00:35:32;1.63;;;1.52;;
42420;SDS011;28063;48.140;11.588;2023-09-07T00:37:58;1.38;;;1.35;;
42420;SDS011;28063;48.140;11.588;2023-09-07T00:40:24;1.70;;;1.60;;
42420;SDS011;28063;48.140;11.588;2023-09-07T00:42:51;1.40;;;1.30;;
42420;SDS011;28063;48.140;11.588;2023-09-07T00:45:17;1.80;;;1.70;;
42420;SDS011;28063;48.140;11.588;2023-09-07T00:47:43;1.40;;;1.30;;
42420;SDS011;28063;48.140;11.588;2023-09-07T00:50:10;1.38;;;1.33;;
42420;SDS011;28063;48.140;11.588;2023-09-07T00:52:41;1.17;;;1.17;;
42420;SDS011;28063;48.140;11.588;2023-09-07T00:55:09;1.30;;;1.30;;
42420;SDS011;28063;48.140;11.588;2023-09-07T00:57:35;1.27;;;1.20;;
42420;SDS011;28063;48.140;11.588;2023-09-07T01:00:04;1.20;;;1.20;;
42420;SDS011;28063;48.140;11.588;2023-09-07T01:02:31;1.35;;;1.25;;
42420;SDS011;28063;48.140;11.588;2023-09-07T01:04:57;1.00;;;1.00;;
42420;SDS011;28063;48.140;11.588;2023-09-07T01:07:24;1.08;;;1.08;;
42420;SDS011;28063;48.140;11.588;2023-09-07T01:09:54;1.30;;;1.20;;
42420;SDS011;28063;48.140;11.588;2023-09-07T01:12:22;1.27;;;1.27;;
42420;SDS011;28063;48.140;11.588;2023-09-07T01:14:48;1.60;;;1.50;;
42420;SDS011;28063;48.140;11.588;2023-09-07T01:17:14;1.60;;;1.33;;
42420;SDS011;28063;48.140;11.588;2023-09-07T01:19:40;1.40;;;1.30;;
42420;SDS011;28063;48.140;11.588;2023-09-07T01:22:06;1.35;;;1.30;;
42420;SDS011;28063;48.140;11.588;2023-09-07T01:24:33;1.52;;;1.42;;
42420;SDS011;28063;48.140;11.588;2023-09-07T01:27:04;1.17;;;1.17;;
42420;SDS011;28063;48.140;11.588;2023-09-07T01:29:30;1.42;;;1.40;;
42420;SDS011;28063;48.140;11.588;2023-09-07T01:31:57;1.40;;;1.30;;
42420;SDS011;28063;48.140;11.588;2023-09-07T01:34:23;1.50;;;1.40;;
42420;SDS011;28063;48.140;11.588;2023-09-07T01:36:50;1.80;;;1.70;;
42420;SDS011;28063;48.140;11.588;2023-09-07T01:39:17;1.70;;;1.60;;
42420;SDS011;28063;48.140;11.588;2023-09-07T01:41:43;1.98;;;1.65;;
42420;SDS011;28063;48.140;11.588;2023-09-07T01:44:09;1.63;;;1.52;;
42420;SDS011;28063;48.140;11.588;2023-09-07T01:46:35;1.52;;;1.48;;
42420;SDS011;28063;48.140;11.588;2023-09-07T01:49:01;1.45;;;1.45;;
42420;SDS011;28063;48.140;11.588;2023-09-07T01:51:27;1.58;;;1.48;;
42420;SDS011;28063;48.140;11.588;2023-09-07T01:53:54;1.80;;;1.70;;
42420;SDS011;28063;48.140;11.588;2023-09-07T01:56:20;1.33;;;1.33;;
42420;SDS011;28063;48.140;11.588;2023-09-07T01:58:46;1.77;;;1.67;;
42420;SDS011;28063;48.140;11.588;2023-09-07T02:01:25;1.48;;;1.38;;
42420;SDS011;28063;48.140;11.588;2023-09-07T02:03:52;1.70;;;1.60;;
42420;SDS011;28063;48.140;11.588;2023-09-07T02:06:18;1.38;;;1.27;;
42420;SDS011;28063;48.140;11.588;2023-09-07T02:08:44;1.80;;;1.70;;
42420;SDS011;28063;48.140;11.588;2023-09-07T02:11:10;1.55;;;1.45;;
42420;SDS011;28063;48.140;11.588;2023-09-07T02:13:36;1.77;;;1.67;;
42420;SDS011;28063;48.140;11.588;2023-09-07T02:16:03;1.48;;;1.38;;
42420;SDS011;28063;48.140;11.588;2023-09-07T02:18:29;1.23;;;1.23;;
42420;SDS011;28063;48.140;11.588;2023-09-07T02:21:00;1.50;;;1.40;;
42420;SDS011;28063;48.140;11.588;2023-09-07T02:23:27;1.63;;;1.52;;
42420;SDS011;28063;48.140;11.588;2023-09-07T02:25:53;1.33;;;1.23;;
42420;SDS011;28063;48.140;11.588;2023-09-07T02:28:19;1.33;;;1.23;;
42420;SDS011;28063;48.140;11.588;2023-09-07T02:30:45;1.90;;;1.80;;
42420;SDS011;28063;48.140;11.588;2023-09-07T02:33:11;1.70;;;1.60;;
42420;SDS011;28063;48.140;11.588;2023-09-07T02:35:37;1.45;;;1.35;;
42420;SDS011;28063;48.140;11.588;2023-09-07T02:38:04;1.30;;;1.30;;
42420;SDS011;28063;48.140;11.588;2023-09-07T02:40:30;1.60;;;1.50;;
42420;SDS011;28063;48.140;11.588;2023-09-07T02:42:56;1.75;;;1.65;;
42420;SDS011;28063;48.140;11.588;2023-09-07T02:45:22;1.80;;;1.70;;
42420;SDS011;28063;48.140;11.588;2023-09-07T02:47:48;1.52;;;1.42;;
42420;SDS011;28063;48.140;11.588;2023-09-07T02:50:16;1.10;;;1.10;;
42420;SDS011;28063;48.140;11.588;2023-09-07T02:52:42;1.40;;;1.30;;
42420;SDS011;28063;48.140;11.588;2023-09-07T02:55:08;1.00;;;1.00;;
42420;SDS011;28063;48.140;11.588;2023-09-07T02:57:35;1.35;;;1.25;;
42420;SDS011;28063;48.140;11.588;2023-09-07T03:00:01;0.93;;;0.93;;
42420;SDS011;28063;48.140;11.588;2023-09-07T03:02:34;1.38;;;1.27;;
42420;SDS011;28063;48.140;11.588;2023-09-07T03:05:00;1.30;;;1.30;;
42420;SDS011;28063;48.140;11.588;2023-09-07T03:07:32;1.23;;;1.23;;
42420;SDS011;28063;48.140;11.588;2023-09-07T03:09:58;1.17;;;1.17;;
42420;SDS011;28063;48.140;11.588;2023-09-07T03:12:24;1.40;;;1.30;;
42420;SDS011;28063;48.140;11.588;2023-09-07T03:14:51;1.30;;;1.30;;
42420;SDS011;28063;48.140;11.588;2023-09-07T03:17:18;1.45;;;1.33;;
42420;SDS011;28063;48.140;11.588;2023-09-07T03:19:47;1.00;;;1.00;;
42420;SDS011;28063;48.140;11.588;2023-09-07T03:22:13;1.20;;;1.20;;
42420;SDS011;28063;48.140;11.588;2023-09-07T03:24:39;1.20;;;1.13;;
42420;SDS011;28063;48.140;11.588;2023-09-07T03:27:06;1.20;;;1.10;;
42420;SDS011;28063;48.140;11.588;2023-09-07T03:29:32;1.48;;;1.38;;
42420;SDS011;28063;48.140;11.588;2023-09-07T03:32:01;1.33;;;1.30;;
42420;SDS011;28063;48.140;11.588;2023-09-07T03:34:27;1.10;;;1.10;;
42420;SDS011;28063;48.140;11.588;2023-09-07T03:36:53;1.42;;;1.33;;
42420;SDS011;28063;48.140;11.588;2023-09-07T03:39:19;1.08;;;1.08;;
42420;SDS011;28063;48.140;11.588;2023-09-07T03:41:48;1.00;;;1.00;;
42420;SDS011;28063;48.140;11.588;2023-09-07T03:44:14;1.15;;;1.15;;
42420;SDS011;28063;48.140;11.588;2023-09-07T03:46:41;1.58;;;1.48;;
42420;SDS011;28063;48.140;11.588;2023-09-07T03:49:07;1.45;;;1.35;;
42420;SDS011;28063;48.140;11.588;2023-09-07T03:51:33;1.88;;;1.70;;
42420;SDS011;28063;48.140;11.588;2023-09-07T03:53:59;1.60;;;1.50;;
42420;SDS011;28063;48.140;11.588;2023-09-07T03:56:25;1.50;;;1.40;;
42420;SDS011;28063;48.140;11.588;2023-09-07T03:58:52;1.50;;;1.40;;
42420;SDS011;28063;48.140;11.588;2023-09-07T04:01:18;1.70;;;1.60;;
42420;SDS011;28063;48.140;11.588;2023-09-07T04:03:44;1.58;;;1.48;;
42420;SDS011;28063;48.140;11.588;2023-09-07T04:06:10;1.60;;;1.50;;
42420;SDS011;28063;48.140;11.588;2023-09-07T04:08:36;1.25;;;1.23;;
42420;SDS011;28063;48.140;11.588;2023-09-07T04:11:05;1.50;;;1.40;;
42420;SDS011;28063;48.140;11.588;2023-09-07T04:13:31;1.75;;;1.65;;
42420;SDS011;28063;48.140;11.588;2023-09-07T04:15:58;1.33;;;1.30;;
42420;SDS011;28063;48.140;11.588;2023-09-07T04:18:24;1.35;;;1.30;;
42420;SDS011;28063;48.140;11.588;2023-09-07T04:20:50;1.33;;;1.23;;
42420;SDS011;28063;48.140;11.588;2023-09-07T04:23:16;1.35;;;1.25;;
42420;SDS011;28063;48.140;11.588;2023-09-07T04:25:42;1.20;;;1.20;;
42420;SDS011;28063;48.140;11.588;2023-09-07T04:28:08;1.48;;;1.38;;
42420;SDS011;28063;48.140;11.588;2023-09-07T04:30:38;1.52;;;1.42;;
42420;SDS011;28063;48.140;11.588;2023-09-07T04:33:04;1.77;;;1.67;;
42420;SDS011;28063;48.140;11.588;2023-09-07T04:35:30;1.50;;;1.40;;
42420;SDS011;28063;48.140;11.588;2023-09-07T04:37:57;1.40;;;1.30;;
42420;SDS011;28063;48.140;11.588;2023-09-07T04:40:23;1.30;;;1.20;;
42420;SDS011;28063;48.140;11.588;2023-09-07T04:42:50;1.35;;;1.25;;
42420;SDS011;28063;48.140;11.588;2023-09-07T04:45:16;1.50;;;1.40;;
42420;SDS011;28063;48.140;11.588;2023-09-07T04:47:42;1.40;;;1.30;;
42420;SDS011;28063;48.140;11.588;2023-09-07T04:50:09;1.33;;;1.30;;
42420;SDS011;28063;48.140;11.588;2023-09-07T04:52:35;1.50;;;1.40;;
42420;SDS011;28063;48.140;11.588;2023-09-07T04:55:01;1.40;;;1.30;;
42420;SDS011;28063;48.140;11.588;2023-09-07T04:57:30;1.25;;;1.25;;
42420;SDS011;28063;48.140;11.588;2023-09-07T04:59:56;1.00;;;1.00;;
42420;SDS011;28063;48.140;11.588;2023-09-07T05:02:22;1.42;;;1.33;;
42420;SDS011;28063;48.140;11.588;2023-09-07T05:04:48;1.60;;;1.50;;
42420;SDS011;28063;48.140;11.588;2023-09-07T05:07:15;1.75;;;1.50;;
42420;SDS011;28063;48.140;11.588;2023-09-07T05:09:41;1.42;;;1.33;;
42420;SDS011;28063;48.140;11.588;2023-09-07T05:12:07;1.38;;;1.27;;
42420;SDS011;28063;48.140;11.588;2023-09-07T05:14:33;1.40;;;1.30;;
42420;SDS011;28063;48.140;11.588;2023-09-07T05:16:59;1.50;;;1.40;;
42420;SDS011;28063;48.140;11.588;2023-09-07T05:19:25;1.50;;;1.40;;
42420;SDS011;28063;48.140;11.588;2023-09-07T05:21:51;1.15;;;1.15;;
42420;SDS011;28063;48.140;11.588;2023-09-07T05:24:17;1.40;;;1.30;;
42420;SDS011;28063;48.140;11.588;2023-09-07T05:26:44;1.30;;;1.27;;
42420;SDS011;28063;48.140;11.588;2023-09-07T05:29:11;1.38;;;1.27;;
42420;SDS011;28063;48.140;11.588;2023-09-07T05:31:37;2.00;;;1.35;;
42420;SDS011;28063;48.140;11.588;2023-09-07T05:34:03;1.67;;;1.58;;
42420;SDS011;28063;48.140;11.588;2023-09-07T05:36:29;1.25;;;1.25;;
42420;SDS011;28063;48.140;11.588;2023-09-07T05:38:55;1.15;;;1.15;;
42420;SDS011;28063;48.140;11.588;2023-09-07T05:41:21;1.40;;;1.30;;
42420;SDS011;28063;48.140;11.588;2023-09-07T05:43:47;1.20;;;1.10;;
42420;SDS011;28063;48.140;11.588;2023-09-07T05:46:14;1.83;;;1.73;;
42420;SDS011;28063;48.140;11.588;2023-09-07T05:48:40;1.38;;;1.27;;
42420;SDS011;28063;48.140;11.588;2023-09-07T05:51:06;1.80;;;1.70;;
42420;SDS011;28063;48.140;11.588;2023-09-07T05:53:32;1.85;;;1.75;;
42420;SDS011;28063;48.140;11.588;2023-09-07T05:55:58;1.80;;;1.70;;
42420;SDS011;28063;48.140;11.588;2023-09-07T05:58:24;1.40;;;1.40;;
42420;SDS011;28063;48.140;11.588;2023-09-07T06:00:50;1.30;;;1.30;;
42420;SDS011;28063;48.140;11.588;2023-09-07T06:03:16;2.10;;;2.00;;
42420;SDS011;28063;48.140;11.588;2023-09-07T06:05:42;1.77;;;1.67;;
42420;SDS011;28063;48.140;11.588;2023-09-07T06:08:09;2.60;;;2.40;;
42420;SDS011;28063;48.140;11.588;2023-09-07T06:10:35;1.88;;;1.77;;
42420;SDS011;28063;48.140;11.588;2023-09-07T06:13:02;2.40;;;2.20;;
42420;SDS011;28063;48.140;11.588;2023-09-07T06:15:28;1.90;;;1.80;;
42420;SDS011;28063;48.140;11.588;2023-09-07T06:17:55;2.03;;;1.92;;
42420;SDS011;28063;48.140;11.588;2023-09-07T06:20:21;1.80;;;1.70;;
42420;SDS011;28063;48.140;11.588;2023-09-07T06:22:47;1.90;;;1.80;;
42420;SDS011;28063;48.140;11.588;2023-09-07T06:25:14;1.83;;;1.73;;
42420;SDS011;28063;48.140;11.588;2023-09-07T06:27:40;2.10;;;2.00;;
42420;SDS011;28063;48.140;11.588;2023-09-07T06:30:06;2.13;;;1.98;;
42420;SDS011;28063;48.140;11.588;2023-09-07T06:32:33;2.08;;;1.98;;
42420;SDS011;28063;48.140;11.588;2023-09-07T06:34:59;2.10;;;2.00;;
42420;SDS011;28063;48.140;11.588;2023-09-07T06:37:25;2.10;;;1.90;;
42420;SDS011;28063;48.140;11.588;2023-09-07T06:39:51;2.67;;;2.42;;
42420;SDS011;28063;48.140;11.588;2023-09-07T06:42:17;2.45;;;2.25;;
42420;SDS011;28063;48.140;11.588;2023-09-07T06:44:43;2.63;;;2.42;;
42420;SDS011;28063;48.140;11.588;2023-09-07T06:47:10;2.65;;;2.45;;
42420;SDS011;28063;48.140;11.588;2023-09-07T06:49:39;2.45;;;2.25;;
42420;SDS011;28063;48.140;11.588;2023-09-07T06:52:05;2.53;;;2.33;;
42420;SDS011;28063;48.140;11.588;2023-09-07T06:54:31;4.03;;;3.60;;
42420;SDS011;28063;48.140;11.588;2023-09-07T06:56:57;4.68;;;4.28;;
42420;SDS011;28063;48.140;11.588;2023-09-07T06:59:23;4.07;;;3.67;;
42420;SDS011;28063;48.140;11.588;2023-09-07T07:01:50;3.83;;;3.38;;
42420;SDS011;28063;48.140;11.588;2023-09-07T07:04:16;4.03;;;3.72;;
42420;SDS011;28063;48.140;11.588;2023-09-07T07:06:42;4.88;;;4.40;;
42420;SDS011;28063;48.140;11.588;2023-09-07T07:09:08;4.68;;;4.28;;
42420;SDS011;28063;48.140;11.588;2023-09-07T07:11:35;4.45;;;4.05;;
42420;SDS011;28063;48.140;11.588;2023-09-07T07:14:04;3.92;;;3.60;;
42420;SDS011;28063;48.140;11.588;2023-09-07T07:16:30;4.43;;;4.00;;
42420;SDS011;28063;48.140;11.588;2023-09-07T07:18:56;4.68;;;4.20;;
42420;SDS011;28063;48.140;11.588;2023-09-07T07:21:22;4.45;;;4.05;;
42420;SDS011;28063;48.140;11.588;2023-09-07T07:23:49;4.88;;;4.47;;
42420;SDS011;28063;48.140;11.588;2023-09-07T07:26:15;5.40;;;4.90;;
42420;SDS011;28063;48.140;11.588;2023-09-07T07:28:42;8.00;;;6.38;;
42420;SDS011;28063;48.140;11.588;2023-09-07T07:31:09;5.15;;;4.75;;
42420;SDS011;28063;48.140;11.588;2023-09-07T07:33:35;5.10;;;4.63;;
42420;SDS011;28063;48.140;11.588;2023-09-07T07:36:03;4.75;;;4.35;;
42420;SDS011;28063;48.140;11.588;2023-09-07T07:38:29;6.07;;;4.40;;
42420;SDS011;28063;48.140;11.588;2023-09-07T07:40:55;4.72;;;4.30;;
42420;SDS011;28063;48.140;11.588;2023-09-07T07:43:21;4.25;;;3.85;;
42420;SDS011;28063;48.140;11.588;2023-09-07T07:45:47;4.68;;;4.13;;
42420;SDS011;28063;48.140;11.588;2023-09-07T07:50:43;4.18;;;3.47;;
42420;SDS011;28063;48.140;11.588;2023-09-07T07:53:09;3.80;;;3.50;;
42420;SDS011;28063;48.140;11.588;2023-09-07T07:55:36;3.50;;;3.20;;
42420;SDS011;28063;48.140;11.588;2023-09-07T07:58:06;3.35;;;3.05;;
42420;SDS011;28063;48.140;11.588;2023-09-07T08:00:33;3.88;;;3.55;;
42420;SDS011;28063;48.140;11.588;2023-09-07T08:03:00;4.53;;;4.13;;
42420;SDS011;28063;48.140;11.588;2023-09-07T08:05:28;4.25;;;3.90;;
42420;SDS011;28063;48.140;11.588;2023-09-07T08:07:54;6.72;;;4.35;;
42420;SDS011;28063;48.140;11.588;2023-09-07T08:10:20;4.00;;;3.67;;
42420;SDS011;28063;48.140;11.588;2023-09-07T08:12:46;3.85;;;3.45;;
42420;SDS011;28063;48.140;11.588;2023-09-07T08:15:12;4.18;;;3.83;;
42420;SDS011;28063;48.140;11.588;2023-09-07T08:17:39;7.75;;;4.70;;
42420;SDS011;28063;48.140;11.588;2023-09-07T08:20:05;8.05;;;5.40;;
42420;SDS011;28063;48.140;11.588;2023-09-07T08:22:36;5.72;;;5.05;;
42420;SDS011;28063;48.140;11.588;2023-09-07T08:25:05;5.50;;;4.47;;
42420;SDS011;28063;48.140;11.588;2023-09-07T08:27:32;6.40;;;4.03;;
42420;SDS011;28063;48.140;11.588;2023-09-07T08:29:58;4.22;;;3.83;;
42420;SDS011;28063;48.140;11.588;2023-09-07T08:32:24;3.90;;;3.60;;
42420;SDS011;28063;48.140;11.588;2023-09-07T08:34:50;5.05;;;4.32;;
42420;SDS011;28063;48.140;11.588;2023-09-07T08:37:21;4.55;;;4.05;;
42420;SDS011;28063;48.140;11.588;2023-09-07T08:39:48;3.60;;;3.30;;
42420;SDS011;28063;48.140;11.588;2023-09-07T08:42:14;3.05;;;2.80;;
42420;SDS011;28063;48.140;11.588;2023-09-07T08:44:40;3.60;;;3.30;;
42420;SDS011;28063;48.140;11.588;2023-09-07T08:47:11;3.22;;;2.95;;
42420;SDS011;28063;48.140;11.588;2023-09-07T08:49:39;3.28;;;3.08;;
42420;SDS011;28063;48.140;11.588;2023-09-07T08:52:06;4.35;;;3.95;;
42420;SDS011;28063;48.140;11.588;2023-09-07T08:54:32;5.15;;;4.63;;
42420;SDS011;28063;48.140;11.588;2023-09-07T08:57:02;4.65;;;4.25;;
42420;SDS011;28063;48.140;11.588;2023-09-07T08:59:29;4.35;;;3.95;;
42420;SDS011;28063;48.140;11.588;2023-09-07T09:01:56;5.13;;;4.18;;
42420;SDS011;28063;48.140;11.588;2023-09-07T09:04:23;5.60;;;4.28;;
42420;SDS011;28063;48.140;11.588;2023-09-07T09:06:49;4.88;;;4.38;;
42420;SDS011;28063;48.140;11.588;2023-09-07T09:09:23;5.38;;;4.68;;
42420;SDS011;28063;48.140;11.588;2023-09-07T09:11:50;7.13;;;4.32;;
42420;SDS011;28063;48.140;11.588;2023-09-07T09:14:19;5.30;;;4.78;;
42420;SDS011;28063;48.140;11.588;2023-09-07T09:16:53;5.70;;;4.78;;
42420;SDS011;28063;48.140;11.588;2023-09-07T09:19:29;5.55;;;5.05;;
42420;SDS011;28063;48.140;11.588;2023-09-07T09:21:56;4.95;;;4.45;;
42420;SDS011;28063;48.140;11.588;2023-09-07T09:24:22;4.40;;;4.00;;
42420;SDS011;28063;48.140;11.588;2023-09-07T09:26:48;8.40;;;5.10;;
42420;SDS011;28063;48.140;11.588;2023-09-07T09:29:14;5.30;;;4.10;;
42420;SDS011;28063;48.140;11.588;2023-09-07T09:31:41;7.43;;;4.30;;
42420;SDS011;28063;48.140;11.588;2023-09-07T09:34:07;5.22;;;4.53;;
42420;SDS011;28063;48.140;11.588;2023-09-07T09:36:34;5.05;;;4.20;;
42420;SDS011;28063;48.140;11.588;2023-09-07T09:39:00;4.88;;;4.03;;
42420;SDS011;28063;48.140;11.588;2023-09-07T09:41:28;4.28;;;3.88;;
42420;SDS011;28063;48.140;11.588;2023-09-07T09:43:56;4.20;;;3.90;;
42420;SDS011;28063;48.140;11.588;2023-09-07T09:46:22;3.97;;;3.67;;
42420;SDS011;28063;48.140;11.588;2023-09-07T09:48:49;5.60;;;4.30;;
42420;SDS011;28063;48.140;11.588;2023-09-07T09:51:16;4.32;;;3.92;;
42420;SDS011;28063;48.140;11.588;2023-09-07T09:53:44;5.15;;;4.28;;
42420;SDS011;28063;48.140;11.588;2023-09-07T09:56:10;3.92;;;3.63;;
42420;SDS011;28063;48.140;11.588;2023-09-07T09:58:37;4.88;;;4.47;;
42420;SDS011;28063;48.140;11.588;2023-09-07T10:01:03;3.90;;;3.60;;
42420;SDS011;28063;48.140;11.588;2023-09-07T10:04:04;4.05;;;3.70;;
42420;SDS011;28063;48.140;11.588;2023-09-07T10:06:28;3.90;;;3.60;;
42420;SDS011;28063;48.140;11.588;2023-09-07T10:08:57;4.22;;;3.83;;
42420;SDS011;28063;48.140;11.588;2023-09-07T10:11:31;3.63;;;3.33;;
42420;SDS011;28063;48.140;11.588;2023-09-07T10:13:57;5.60;;;4.10;;
42420;SDS011;28063;48.140;11.588;2023-09-07T10:16:24;4.90;;;4.40;;
42420;SDS011;28063;48.140;11.588;2023-09-07T10:18:52;5.22;;;4.15;;
42420;SDS011;28063;48.140;11.588;2023-09-07T10:21:18;4.03;;;3.67;;
42420;SDS011;28063;48.140;11.588;2023-09-07T10:23:44;4.90;;;4.50;;
42420;SDS011;28063;48.140;11.588;2023-09-07T10:28:37;3.75;;;3.45;;
42420;SDS011;28063;48.140;11.588;2023-09-07T10:33:33;4.75;;;4.13;;
42420;SDS011;28063;48.140;11.588;2023-09-07T10:35:59;4.80;;;4.40;;
42420;SDS011;28063;48.140;11.588;2023-09-07T10:38:26;4.82;;;3.55;;
42420;SDS011;28063;48.140;11.588;2023-09-07T10:40:56;4.32;;;3.92;;
42420;SDS011;28063;48.140;11.588;2023-09-07T10:43:26;4.70;;;4.30;;
42420;SDS011;28063;48.140;11.588;2023-09-07T10:45:55;4.05;;;3.60;;
42420;SDS011;28063;48.140;11.588;2023-09-07T10:48:22;6.82;;;4.70;;
42420;SDS011;28063;48.140;11.588;2023-09-07T10:50:48;4.38;;;4.07;;
42420;SDS011;28063;48.140;11.588;2023-09-07T10:53:24;4.63;;;4.32;;
42420;SDS011;28063;48.140;11.588;2023-09-07T10:55:50;4.32;;;4.00;;
42420;SDS011;28063;48.140;11.588;2023-09-07T10:58:26;4.53;;;4.13;;
42420;SDS011;28063;48.140;11.588;2023-09-07T11:00:53;4.40;;;4.00;;
42420;SDS011;28063;48.140;11.588;2023-09-07T11:03:19;7.35;;;4.10;;
42420;SDS011;28063;48.140;11.588;2023-09-07T11:05:45;4.25;;;3.85;;
42420;SDS011;28063;48.140;11.588;2023-09-07T11:08:12;3.97;;;3.67;;
42420;SDS011;28063;48.140;11.588;2023-09-07T11:10:38;3.83;;;3.53;;
42420;SDS011;28063;48.140;11.588;2023-09-07T11:13:04;4.80;;;4.30;;
42420;SDS011;28063;48.140;11.588;2023-09-07T11:15:31;5.13;;;4.65;;
42420;SDS011;28063;48.140;11.588;2023-09-07T11:17:59;4.57;;;4.18;;
42420;SDS011;28063;48.140;11.588;2023-09-07T11:22:56;4.82;;;4.18;;
42420;SDS011;28063;48.140;11.588;2023-09-07T11:25:22;6.25;;;4.40;;
42420;SDS011;28063;48.140;11.588;2023-09-07T11:27:48;4.88;;;4.43;;
42420;SDS011;28063;48.140;11.588;2023-09-07T11:30:14;4.18;;;3.78;;
42420;SDS011;28063;48.140;11.588;2023-09-07T11:32:41;5.28;;;4.88;;
42420;SDS011;28063;48.140;11.588;2023-09-07T11:35:08;4.32;;;3.92;;
42420;SDS011;28063;48.140;11.588;2023-09-07T11:37:35;5.18;;;4.03;;
42420;SDS011;28063;48.140;11.588;2023-09-07T11:40:01;4.30;;;3.90;;
42420;SDS011;28063;48.140;11.588;2023-09-07T11:42:29;4.15;;;3.85;;
42420;SDS011;28063;48.140;11.588;2023-09-07T11:44:55;5.80;;;4.25;;
42420;SDS011;28063;48.140;11.588;2023-09-07T11:47:21;4.43;;;4.13;;
42420;SDS011;28063;48.140;11.588;2023-09-07T11:49:47;6.70;;;4.70;;
42420;SDS011;28063;48.140;11.588;2023-09-07T11:52:16;4.43;;;4.07;;
42420;SDS011;28063;48.140;11.588;2023-09-07T11:54:42;4.32;;;4.00;;
42420;SDS011;28063;48.140;11.588;2023-09-07T11:57:08;5.03;;;4.53;;
42420;SDS011;28063;48.140;11.588;2023-09-07T11:59:34;4.38;;;4.03;;
42420;SDS011;28063;48.140;11.588;2023-09-07T12:02:01;4.72;;;4.32;;
42420;SDS011;28063;48.140;11.588;2023-09-07T12:04:27;4.43;;;4.03;;
42420;SDS011;28063;48.140;11.588;2023-09-07T12:06:53;4.40;;;4.07;;
42420;SDS011;28063;48.140;11.588;2023-09-07T12:09:20;4.43;;;4.03;;
42420;SDS011;28063;48.140;11.588;2023-09-07T12:11:46;3.78;;;3.47;;
42420;SDS011;28063;48.140;11.588;2023-09-07T12:14:12;4.85;;;4.20;;
42420;SDS011;28063;48.140;11.588;2023-09-07T12:16:38;4.45;;;3.80;;
42420;SDS011;28063;48.140;11.588;2023-09-07T12:19:04;6.38;;;4.38;;
42420;SDS011;28063;48.140;11.588;2023-09-07T12:21:30;6.18;;;3.97;;
42420;SDS011;28063;48.140;11.588;2023-09-07T12:23:56;3.97;;;3.58;;
42420;SDS011;28063;48.140;11.588;2023-09-07T12:26:22;5.80;;;4.10;;
42420;SDS011;28063;48.140;11.588;2023-09-07T12:28:48;3.90;;;3.60;;
42420;SDS011;28063;48.140;11.588;2023-09-07T12:31:15;4.78;;;3.92;;
42420;SDS011;28063;48.140;11.588;2023-09-07T12:33:41;4.07;;;3.67;;
42420;SDS011;28063;48.140;11.588;2023-09-07T12:36:08;10.73;;;4.35;;
42420;SDS011;28063;48.140;11.588;2023-09-07T12:38:35;4.20;;;3.90;;
42420;SDS011;28063;48.140;11.588;2023-09-07T12:41:01;4.82;;;4.05;;
42420;SDS011;28063;48.140;11.588;2023-09-07T12:43:27;5.35;;;3.72;;
42420;SDS011;28063;48.140;11.588;2023-09-07T12:45:54;3.67;;;3.38;;
42420;SDS011;28063;48.140;11.588;2023-09-07T12:48:20;4.13;;;3.72;;
42420;SDS011;28063;48.140;11.588;2023-09-07T12:50:46;5.32;;;4.10;;
42420;SDS011;28063;48.140;11.588;2023-09-07T12:53:13;4.63;;;3.78;;
42420;SDS011;28063;48.140;11.588;2023-09-07T12:55:39;4.85;;;4.35;;
42420;SDS011;28063;48.140;11.588;2023-09-07T12:58:05;5.78;;;4.45;;
42420;SDS011;28063;48.140;11.588;2023-09-07T13:00:31;6.47;;;3.85;;
42420;SDS011;28063;48.140;11.588;2023-09-07T13:02:57;4.78;;;4.05;;
42420;SDS011;28063;48.140;11.588;2023-09-07T13:05:23;4.40;;;4.00;;
42420;SDS011;28063;48.140;11.588;2023-09-07T13:07:50;5.28;;;3.95;;
42420;SDS011;28063;48.140;11.588;2023-09-07T13:10:17;7.10;;;3.95;;
42420;SDS011;28063;48.140;11.588;2023-09-07T13:12:43;3.95;;;3.40;;
42420;SDS011;28063;48.140;11.588;2023-09-07T13:15:10;3.58;;;3.28;;
42420;SDS011;28063;48.140;11.588;2023-09-07T13:17:36;5.03;;;4.10;;
42420;SDS011;28063;48.140;11.588;2023-09-07T13:20:02;5.63;;;3.45;;
42420;SDS011;28063;48.140;11.588;2023-09-07T13:22:28;7.40;;;4.07;;
42420;SDS011;28063;48.140;11.588;2023-09-07T13:24:54;5.13;;;3.50;;
42420;SDS011;28063;48.140;11.588;2023-09-07T13:27:20;3.63;;;3.33;;
42420;SDS011;28063;48.140;11.588;2023-09-07T13:29:46;4.03;;;3.63;;
42420;SDS011;28063;48.140;11.588;2023-09-07T13:32:12;4.07;;;3.47;;
42420;SDS011;28063;48.140;11.588;2023-09-07T13:34:38;3.75;;;3.42;;
42420;SDS011;28063;48.140;11.588;2023-09-07T13:37:05;3.65;;;3.35;;
42420;SDS011;28063;48.140;11.588;2023-09-07T13:39:31;3.30;;;3.00;;
42420;SDS011;28063;48.140;11.588;2023-09-07T13:41:57;6.40;;;3.50;;
42420;SDS011;28063;48.140;11.588;2023-09-07T13:44:26;4.63;;;3.40;;
42420;SDS011;28063;48.140;11.588;2023-09-07T13:47:02;7.63;;;3.38;;
42420;SDS011;28063;48.140;11.588;2023-09-07T13:49:40;3.70;;;3.47;;
42420;SDS011;28063;48.140;11.588;2023-09-07T13:52:41;3.83;;;3.53;;
42420;SDS011;28063;48.140;11.588;2023-09-07T13:55:47;3.63;;;3.33;;
42420;SDS011;28063;48.140;11.588;2023-09-07T13:58:30;3.65;;;3.35;;
42420;SDS011;28063;48.140;11.588;2023-09-07T14:01:05;3.70;;;3.40;;
42420;SDS011;28063;48.140;11.588;2023-09-07T14:03:38;4.10;;;3.70;;
42420;SDS011;28063;48.140;11.588;2023-09-07T14:06:16;3.50;;;3.20;;
42420;SDS011;28063;48.140;11.588;2023-09-07T14:08:47;3.67;;;3.40;;
42420;SDS011;28063;48.140;11.588;2023-09-07T14:11:28;5.93;;;3.40;;
42420;SDS011;28063;48.140;11.588;2023-09-07T14:16:45;3.45;;;3.13;;
42420;SDS011;28063;48.140;11.588;2023-09-07T14:19:23;3.75;;;3.10;;
42420;SDS011;28063;48.140;11.588;2023-09-07T14:21:49;3.53;;;3.00;;
42420;SDS011;28063;48.140;11.588;2023-09-07T14:24:15;5.03;;;3.42;;
42420;SDS011;28063;48.140;11.588;2023-09-07T14:26:41;3.33;;;3.03;;
42420;SDS011;28063;48.140;11.588;2023-09-07T14:29:07;3.80;;;3.10;;
42420;SDS011;28063;48.140;11.588;2023-09-07T14:31:33;3.75;;;3.45;;
42420;SDS011;28063;48.140;11.588;2023-09-07T14:33:59;3.75;;;3.42;;
42420;SDS011;28063;48.140;11.588;2023-09-07T14:36:25;5.47;;;3.30;;
42420;SDS011;28063;48.140;11.588;2023-09-07T14:38:52;3.78;;;3.40;;
42420;SDS011;28063;48.140;11.588;2023-09-07T14:41:18;4.20;;;3.80;;
42420;SDS011;28063;48.140;11.588;2023-09-07T14:43:45;3.80;;;3.25;;
42420;SDS011;28063;48.140;11.588;2023-09-07T14:46:11;3.58;;;3.28;;